Time;durP1;ratioP1;P1;durP2;ratioP2;P2;SDS_P1;SDS_P2;PMS_P1;PMS_P2;Temp;Humidity;BMP_temperature;BMP_pressure;BME280_temperature;BME280_humidity;BME280_pressure;Samples;Min_cycle;Max_cycle;Signal;HPM_P1;HPM_P2
2021/09/27 00:01:14;;;;;;;18.67;8.30;;;;;;;;;;4446931;32;20228;-53
2021/09/27 00:03:40;;;;;;;11.95;7.75;;;;;;;;;;4449844;32;20227;-54
2021/09/27 00:06:07;;;;;;;13.55;7.22;;;;;;;;;;4450763;32;20363;-54
2021/09/27 00:08:33;;;;;;;18.40;9.40;;;;;;;;;;4450836;32;20278;-53
2021/09/27 00:11:05;;;;;;;19.80;9.48;;;;;;;;;;4450544;32;20236;-53
2021/09/27 00:13:35;;;;;;;27.17;10.07;;;;;;;;;;4450785;32;20256;-53
2021/09/27 00:16:00;;;;;;;16.48;9.38;;;;;;;;;;4450454;32;20317;-53
2021/09/27 00:18:27;;;;;;;16.60;9.18;;;;;;;;;;4450486;32;20267;-54
2021/09/27 00:20:56;;;;;;;23.45;9.25;;;;;;;;;;4450481;32;20248;-53
2021/09/27 00:23:22;;;;;;;16.23;7.85;;;;;;;;;;4450309;32;20212;-53
2021/09/27 00:25:48;;;;;;;23.35;9.30;;;;;;;;;;4450331;32;20270;-53
2021/09/27 00:28:15;;;;;;;30.50;9.00;;;;;;;;;;4450550;32;20205;-53
2021/09/27 00:30:41;;;;;;;14.27;8.20;;;;;;;;;;4450175;32;20239;-52
2021/09/27 00:33:07;;;;;;;17.20;8.73;;;;;;;;;;4449796;32;20284;-53
2021/09/27 00:35:35;;;;;;;16.12;10.13;;;;;;;;;;4450255;32;20291;-53
2021/09/27 00:38:01;;;;;;;27.30;15.10;;;;;;;;;;4450235;32;20563;-55
2021/09/27 00:40:32;;;;;;;53.70;23.75;;;;;;;;;;4450400;32;20220;-53
2021/09/27 00:42:58;;;;;;;69.05;24.17;;;;;;;;;;4450156;32;20571;-53
2021/09/27 00:45:33;;;;;;;65.80;26.52;;;;;;;;;;4449922;32;20320;-53
2021/09/27 00:47:59;;;;;;;65.70;26.62;;;;;;;;;;4450107;32;20236;-54
2021/09/27 00:50:30;;;;;;;59.50;24.42;;;;;;;;;;4444408;32;20220;-53
2021/09/27 00:52:56;;;;;;;70.37;28.00;;;;;;;;;;4434469;32;20565;-53
2021/09/27 00:55:24;;;;;;;61.15;25.37;;;;;;;;;;4434475;32;20541;-53
2021/09/27 00:57:50;;;;;;;44.85;21.77;;;;;;;;;;4434453;32;20277;-54
2021/09/27 01:00:19;;;;;;;32.65;12.52;;;;;;;;;;4443854;32;20430;-53
2021/09/27 01:02:45;;;;;;;25.62;12.32;;;;;;;;;;4448360;32;20660;-56
2021/09/27 01:05:13;;;;;;;32.80;13.35;;;;;;;;;;4448302;32;20325;-52
2021/09/27 01:07:54;;;;;;;28.92;10.95;;;;;;;;;;4448350;32;20309;-53
2021/09/27 01:10:38;;;;;;;20.75;9.43;;;;;;;;;;4448008;32;20245;-53
2021/09/27 01:13:18;;;;;;;21.17;7.93;;;;;;;;;;4448065;32;20216;-53
2021/09/27 01:16:12;;;;;;;16.50;7.15;;;;;;;;;;4438760;32;20269;-53
2021/09/27 01:18:41;;;;;;;19.60;7.95;;;;;;;;;;4446931;32;20205;-53
2021/09/27 01:21:30;;;;;;;19.42;8.60;;;;;;;;;;4448290;32;20231;-54
2021/09/27 01:24:15;;;;;;;26.75;11.55;;;;;;;;;;4445592;32;20601;-53
2021/09/27 01:27:06;;;;;;;40.50;18.98;;;;;;;;;;4447621;32;20609;-53
2021/09/27 01:30:01;;;;;;;53.75;22.35;;;;;;;;;;4449023;32;20764;-53
2021/09/27 01:32:42;;;;;;;58.35;23.58;;;;;;;;;;4445757;32;20205;-54
2021/09/27 01:35:39;;;;;;;57.97;25.65;;;;;;;;;;4433916;32;20192;-53
2021/09/27 01:38:10;;;;;;;54.00;23.52;;;;;;;;;;4434048;32;20299;-53
2021/09/27 01:40:39;;;;;;;42.53;22.60;;;;;;;;;;4449516;32;20813;-53
2021/09/27 01:43:20;;;;;;;44.97;18.75;;;;;;;;;;4448987;32;20741;-53
2021/09/27 01:46:02;;;;;;;34.58;15.88;;;;;;;;;;4448921;32;20212;-53
2021/09/27 01:48:33;;;;;;;41.75;18.35;;;;;;;;;;4433878;32;20273;-53
2021/09/27 01:51:08;;;;;;;40.20;17.50;;;;;;;;;;4433551;32;20368;-52
2021/09/27 01:53:47;;;;;;;37.47;16.02;;;;;;;;;;4433475;32;20295;-53
2021/09/27 01:56:35;;;;;;;41.90;16.25;;;;;;;;;;4433596;32;20317;-53
2021/09/27 01:59:16;;;;;;;33.55;15.45;;;;;;;;;;4434460;32;20291;-54
2021/09/27 02:02:27;;;;;;;34.33;16.42;;;;;;;;;;4448260;32;20434;-52
2021/09/27 02:05:04;;;;;;;28.38;14.95;;;;;;;;;;4430238;32;20297;-53
2021/09/27 02:07:37;;;;;;;31.02;15.63;;;;;;;;;;4448885;32;20276;-54
2021/09/27 02:10:13;;;;;;;34.17;14.55;;;;;;;;;;4448775;32;20592;-54
2021/09/27 02:12:47;;;;;;;36.03;14.00;;;;;;;;;;4448500;32;20263;-53
2021/09/27 02:15:21;;;;;;;26.73;13.02;;;;;;;;;;4448832;32;20317;-53
2021/09/27 02:17:59;;;;;;;29.85;14.55;;;;;;;;;;4434149;32;20255;-53
2021/09/27 02:20:37;;;;;;;30.85;13.73;;;;;;;;;;4448554;32;20238;-53
2021/09/27 02:23:17;;;;;;;23.15;11.50;;;;;;;;;;4448523;32;20244;-53
2021/09/27 02:25:44;;;;;;;25.05;12.43;;;;;;;;;;4447643;32;20311;-53
2021/09/27 02:28:13;;;;;;;31.15;13.57;;;;;;;;;;4448246;32;20209;-54
2021/09/27 02:30:47;;;;;;;30.62;14.40;;;;;;;;;;4448142;32;20598;-53
2021/09/27 02:33:23;;;;;;;31.67;13.35;;;;;;;;;;4448235;32;20251;-54
2021/09/27 02:36:00;;;;;;;27.85;13.60;;;;;;;;;;4448139;32;20259;-52
2021/09/27 02:38:45;;;;;;;32.03;14.02;;;;;;;;;;4445393;32;20231;-52
2021/09/27 02:41:28;;;;;;;27.83;13.05;;;;;;;;;;4432999;32;20236;-52
2021/09/27 02:43:55;;;;;;;28.62;12.43;;;;;;;;;;4443170;32;20538;-53
2021/09/27 02:46:22;;;;;;;24.37;11.75;;;;;;;;;;4447829;32;20243;-53
2021/09/27 02:49:07;;;;;;;22.65;11.75;;;;;;;;;;4448067;32;20216;-54
2021/09/27 02:51:33;;;;;;;23.92;11.32;;;;;;;;;;4446695;32;20436;-53
2021/09/27 02:53:58;;;;;;;25.20;11.23;;;;;;;;;;4447880;32;20350;-53
2021/09/27 02:56:48;;;;;;;20.20;11.23;;;;;;;;;;4447898;32;20232;-53
2021/09/27 02:59:29;;;;;;;28.50;12.30;;;;;;;;;;4447933;32;20284;-53
2021/09/27 03:02:33;;;;;;;35.63;11.35;;;;;;;;;;4447247;32;20250;-53
2021/09/27 03:05:11;;;;;;;19.48;9.45;;;;;;;;;;4384474;32;20218;-54
2021/09/27 03:08:08;;;;;;;23.80;10.80;;;;;;;;;;4439533;32;20224;-53
2021/09/27 03:10:43;;;;;;;21.27;11.20;;;;;;;;;;4447549;32;20529;-53
2021/09/27 03:13:18;;;;;;;29.27;12.48;;;;;;;;;;4447850;32;20232;-53
2021/09/27 03:15:51;;;;;;;33.28;16.48;;;;;;;;;;4447714;32;20327;-53
2021/09/27 03:18:48;;;;;;;55.95;23.77;;;;;;;;;;4448137;32;20230;-52
2021/09/27 03:21:48;;;;;;;53.63;23.73;;;;;;;;;;4447576;32;20384;-53
2021/09/27 03:24:42;;;;;;;63.95;27.23;;;;;;;;;;4421986;32;20236;-53
2021/09/27 03:27:19;;;;;;;66.40;27.60;;;;;;;;;;4432348;32;20221;-53
2021/09/27 03:30:02;;;;;;;47.47;23.40;;;;;;;;;;4432346;32;20209;-53
2021/09/27 03:32:54;;;;;;;50.90;23.12;;;;;;;;;;4445841;32;20224;-53
2021/09/27 03:35:41;;;;;;;47.30;20.73;;;;;;;;;;4447845;32;20351;-54
2021/09/27 03:38:11;;;;;;;53.80;23.20;;;;;;;;;;4446483;32;20525;-53
2021/09/27 03:40:47;;;;;;;53.63;23.38;;;;;;;;;;4447303;32;20204;-53
2021/09/27 03:43:28;;;;;;;44.40;21.80;;;;;;;;;;4447969;32;20267;-53
2021/09/27 03:46:27;;;;;;;46.28;20.15;;;;;;;;;;4446038;32;20258;-53
2021/09/27 03:49:02;;;;;;;36.45;18.12;;;;;;;;;;4447542;32;20324;-52
2021/09/27 03:51:49;;;;;;;35.75;16.98;;;;;;;;;;4447519;32;20292;-52
2021/09/27 03:54:52;;;;;;;41.42;16.67;;;;;;;;;;4447645;32;20197;-52
2021/09/27 03:57:28;;;;;;;32.88;16.40;;;;;;;;;;4422873;32;20243;-53
2021/09/27 04:00:10;;;;;;;30.65;14.95;;;;;;;;;;4447016;32;20568;-53
2021/09/27 04:02:36;;;;;;;25.83;15.55;;;;;;;;;;4446745;32;20262;-53
2021/09/27 04:05:17;;;;;;;31.08;15.40;;;;;;;;;;4447255;32;20362;-53
2021/09/27 04:08:08;;;;;;;36.30;16.83;;;;;;;;;;4447327;32;20868;-53
2021/09/27 04:10:51;;;;;;;29.87;15.10;;;;;;;;;;4447416;32;20225;-53
2021/09/27 04:13:44;;;;;;;26.92;14.73;;;;;;;;;;4446401;32;20611;-53
2021/09/27 04:16:27;;;;;;;30.15;16.67;;;;;;;;;;4446164;32;20236;-52
2021/09/27 04:19:05;;;;;;;69.00;26.45;;;;;;;;;;4447098;32;20254;-52
2021/09/27 04:21:30;;;;;;;88.35;33.75;;;;;;;;;;4447362;32;20213;-52
2021/09/27 04:24:01;;;;;;;58.47;24.67;;;;;;;;;;4447054;32;20736;-52
2021/09/27 04:26:53;;;;;;;43.50;18.73;;;;;;;;;;4447458;32;20340;-53
2021/09/27 04:29:21;;;;;;;47.55;19.27;;;;;;;;;;4444105;32;20216;-53
2021/09/27 04:32:08;;;;;;;36.50;17.42;;;;;;;;;;4446667;32;20244;-54
2021/09/27 04:34:43;;;;;;;30.80;15.52;;;;;;;;;;4432405;32;20257;-52
2021/09/27 04:37:10;;;;;;;29.10;14.80;;;;;;;;;;4445854;32;20634;-53
2021/09/27 04:39:39;;;;;;;33.47;14.82;;;;;;;;;;4447060;32;20268;-53
2021/09/27 04:42:26;;;;;;;28.38;16.10;;;;;;;;;;4447178;32;20282;-54
2021/09/27 04:45:13;;;;;;;37.35;17.92;;;;;;;;;;4445407;32;20350;-53
2021/09/27 04:47:54;;;;;;;31.77;15.57;;;;;;;;;;4445572;32;20344;-53
2021/09/27 04:50:28;;;;;;;26.80;12.95;;;;;;;;;;4449594;32;20280;-53
2021/09/27 04:53:15;;;;;;;30.27;15.23;;;;;;;;;;4448918;32;20250;-53
2021/09/27 04:55:53;;;;;;;29.90;14.98;;;;;;;;;;4449329;32;20281;-53
2021/09/27 04:58:46;;;;;;;30.55;15.48;;;;;;;;;;4449653;32;20612;-53
2021/09/27 05:01:19;;;;;;;33.28;14.48;;;;;;;;;;4435958;32;20307;-52
2021/09/27 05:03:59;;;;;;;33.00;13.65;;;;;;;;;;4449115;32;20204;-53
2021/09/27 05:06:43;;;;;;;37.88;15.98;;;;;;;;;;4448962;32;20298;-54
2021/09/27 05:09:37;;;;;;;38.75;15.07;;;;;;;;;;4448990;32;20624;-53
2021/09/27 05:12:13;;;;;;;28.05;13.30;;;;;;;;;;4445738;32;20263;-53
2021/09/27 05:14:57;;;;;;;33.00;15.48;;;;;;;;;;4448274;32;20287;-55
2021/09/27 05:17:31;;;;;;;30.40;14.45;;;;;;;;;;4449103;32;20247;-53
2021/09/27 05:20:11;;;;;;;37.30;14.65;;;;;;;;;;4449237;32;20328;-54
2021/09/27 05:22:55;;;;;;;29.48;14.63;;;;;;;;;;4448841;32;20227;-53
2021/09/27 05:25:38;;;;;;;29.83;12.93;;;;;;;;;;4447815;32;20310;-53
2021/09/27 05:28:41;;;;;;;30.40;15.00;;;;;;;;;;4448043;32;20302;-53
2021/09/27 05:31:31;;;;;;;35.92;14.98;;;;;;;;;;4447645;32;20795;-54
2021/09/27 05:34:06;;;;;;;33.67;13.35;;;;;;;;;;4446476;32;20249;-52
2021/09/27 05:36:50;;;;;;;33.67;14.35;;;;;;;;;;4446452;32;20244;-53
2021/09/27 05:39:54;;;;;;;33.75;13.95;;;;;;;;;;4442290;32;20236;-52
2021/09/27 05:42:46;;;;;;;49.75;16.12;;;;;;;;;;4420445;32;20347;-52
2021/09/27 05:45:44;;;;;;;40.58;16.00;;;;;;;;;;4448407;32;20310;-52
2021/09/27 05:48:26;;;;;;;41.53;17.67;;;;;;;;;;4436106;32;20282;-53
2021/09/27 05:51:07;;;;;;;45.92;19.90;;;;;;;;;;4457739;32;20243;-54
2021/09/27 05:53:48;;;;;;;46.03;19.55;;;;;;;;;;4449367;32;20197;-54
2021/09/27 05:56:41;;;;;;;44.55;22.42;;;;;;;;;;4461815;32;20262;-53
2021/09/27 05:59:18;;;;;;;51.20;21.20;;;;;;;;;;4464010;32;20579;-53
2021/09/27 06:01:58;;;;;;;53.55;23.77;;;;;;;;;;4450502;32;20744;-53
2021/09/27 06:04:28;;;;;;;53.50;21.65;;;;;;;;;;4454615;32;20715;-54
2021/09/27 06:07:10;;;;;;;41.65;20.85;;;;;;;;;;4462810;32;20740;-54
2021/09/27 06:10:06;;;;;;;60.92;24.40;;;;;;;;;;4454896;32;20268;-52
2021/09/27 06:13:06;;;;;;;52.38;26.27;;;;;;;;;;4447094;32;20700;-52
2021/09/27 06:15:54;;;;;;;48.42;22.30;;;;;;;;;;4446829;32;20702;-52
2021/09/27 06:18:25;;;;;;;37.85;19.50;;;;;;;;;;4447380;32;20220;-53
2021/09/27 06:21:17;;;;;;;40.08;16.95;;;;;;;;;;4453954;32;20347;-52
2021/09/27 06:24:02;;;;;;;32.88;14.85;;;;;;;;;;4462886;32;20283;-53
2021/09/27 06:26:36;;;;;;;30.12;14.68;;;;;;;;;;4463143;32;20256;-53
2021/09/27 06:29:10;;;;;;;33.20;13.95;;;;;;;;;;4450678;32;21067;-53
2021/09/27 06:31:52;;;;;;;23.48;12.90;;;;;;;;;;4446978;32;20270;-53
2021/09/27 06:34:27;;;;;;;23.65;11.43;;;;;;;;;;4447120;32;20965;-53
2021/09/27 06:36:56;;;;;;;22.42;11.77;;;;;;;;;;4446896;32;20345;-54
2021/09/27 06:39:27;;;;;;;17.02;9.73;;;;;;;;;;4446840;32;20370;-52
2021/09/27 06:41:53;;;;;;;21.95;9.18;;;;;;;;;;4447848;32;20708;-53
2021/09/27 06:44:21;;;;;;;21.90;9.95;;;;;;;;;;4448111;32;20377;-53
2021/09/27 06:46:47;;;;;;;18.92;9.65;;;;;;;;;;4447610;32;20264;-54
2021/09/27 06:49:13;;;;;;;19.55;9.32;;;;;;;;;;4448088;32;20353;-53
2021/09/27 06:51:41;;;;;;;24.00;9.68;;;;;;;;;;4447067;32;20228;-53
2021/09/27 06:54:11;;;;;;;18.98;9.15;;;;;;;;;;4446802;32;20334;-54
2021/09/27 06:56:38;;;;;;;18.65;9.52;;;;;;;;;;4447362;32;20244;-52
2021/09/27 06:59:04;;;;;;;20.88;9.90;;;;;;;;;;4446942;32;20232;-54
2021/09/27 07:01:30;;;;;;;19.92;8.43;;;;;;;;;;4446842;32;20258;-52
2021/09/27 07:03:56;;;;;;;17.83;8.23;;;;;;;;;;4447749;32;20279;-53
2021/09/27 07:06:21;;;;;;;12.55;7.35;;;;;;;;;;4447198;32;20692;-53
2021/09/27 07:08:47;;;;;;;14.98;7.95;;;;;;;;;;4446779;32;20279;-54
2021/09/27 07:11:14;;;;;;;15.65;8.05;;;;;;;;;;4446861;32;20306;-53
2021/09/27 07:13:39;;;;;;;17.73;8.27;;;;;;;;;;4447646;32;20328;-54
2021/09/27 07:16:05;;;;;;;16.05;7.95;;;;;;;;;;4446897;32;20255;-54
2021/09/27 07:18:32;;;;;;;19.12;7.95;;;;;;;;;;4447573;32;20287;-54
2021/09/27 07:20:59;;;;;;;11.82;8.35;;;;;;;;;;4445781;32;20241;-54
2021/09/27 07:23:28;;;;;;;17.80;8.45;;;;;;;;;;4447980;32;20295;-53
2021/09/27 07:25:53;;;;;;;12.35;7.47;;;;;;;;;;4447641;32;20251;-53
2021/09/27 07:28:21;;;;;;;10.90;6.57;;;;;;;;;;4447216;32;20275;-53
2021/09/27 07:30:50;;;;;;;12.18;7.20;;;;;;;;;;4447577;32;20231;-54
2021/09/27 07:33:16;;;;;;;11.73;6.07;;;;;;;;;;4447513;32;20251;-54
2021/09/27 07:35:41;;;;;;;15.60;6.57;;;;;;;;;;4447454;32;20467;-53
2021/09/27 07:38:07;;;;;;;11.90;6.80;;;;;;;;;;4447228;32;20797;-53
2021/09/27 07:40:35;;;;;;;10.63;6.53;;;;;;;;;;4447442;32;20266;-53
2021/09/27 07:43:02;;;;;;;18.75;7.40;;;;;;;;;;4446878;32;20201;-53
2021/09/27 07:45:33;;;;;;;13.25;7.12;;;;;;;;;;4446451;32;20220;-53
2021/09/27 07:47:59;;;;;;;22.10;11.40;;;;;;;;;;4446949;32;20228;-53
2021/09/27 07:50:25;;;;;;;15.48;8.55;;;;;;;;;;4446510;32;20272;-52
2021/09/27 07:52:50;;;;;;;23.55;8.80;;;;;;;;;;4445865;32;20296;-55
2021/09/27 07:55:16;;;;;;;25.52;8.00;;;;;;;;;;4446979;32;20295;-52
2021/09/27 07:57:41;;;;;;;12.50;6.37;;;;;;;;;;4446383;32;20768;-53
2021/09/27 08:00:10;;;;;;;12.63;5.75;;;;;;;;;;4446710;32;20319;-52
2021/09/27 08:02:35;;;;;;;11.98;5.75;;;;;;;;;;4446921;32;20245;-53
2021/09/27 08:05:00;;;;;;;9.88;5.30;;;;;;;;;;4446991;32;20375;-53
2021/09/27 08:07:26;;;;;;;10.30;6.10;;;;;;;;;;4446998;32;20249;-53
2021/09/27 08:09:52;;;;;;;28.30;7.12;;;;;;;;;;4447001;32;20299;-53
2021/09/27 08:12:17;;;;;;;15.93;6.55;;;;;;;;;;4447390;32;20479;-54
2021/09/27 08:14:43;;;;;;;19.12;6.65;;;;;;;;;;4447200;32;20314;-53
2021/09/27 08:17:09;;;;;;;22.33;13.45;;;;;;;;;;4447233;32;20252;-53
2021/09/27 08:19:37;;;;;;;17.90;7.57;;;;;;;;;;4446200;32;20272;-54
2021/09/27 08:22:04;;;;;;;18.77;7.55;;;;;;;;;;4446291;32;20684;-53
2021/09/27 08:24:30;;;;;;;14.43;7.28;;;;;;;;;;4446778;32;20233;-54
2021/09/27 08:26:55;;;;;;;14.40;7.15;;;;;;;;;;4448335;32;20632;-53
2021/09/27 08:29:21;;;;;;;19.83;6.90;;;;;;;;;;4448955;32;20303;-53
2021/09/27 08:31:46;;;;;;;11.95;7.20;;;;;;;;;;4448468;32;20627;-52
2021/09/27 08:34:12;;;;;;;14.48;8.20;;;;;;;;;;4448267;32;20334;-52
2021/09/27 08:36:37;;;;;;;13.27;6.72;;;;;;;;;;4449129;32;20236;-53
2021/09/27 08:39:04;;;;;;;24.58;7.18;;;;;;;;;;4450254;32;20611;-52
2021/09/27 08:41:53;;;;;;;13.77;7.37;;;;;;;;;;4449049;32;20240;-53
2021/09/27 08:44:42;;;;;;;9.25;5.68;;;;;;;;;;4448393;32;20245;-53
2021/09/27 08:47:26;;;;;;;12.00;6.57;;;;;;;;;;4426535;32;20338;-53
2021/09/27 08:49:58;;;;;;;12.77;6.05;;;;;;;;;;4449412;32;20800;-55
2021/09/27 08:52:26;;;;;;;10.77;5.40;;;;;;;;;;4449590;32;20201;-53
2021/09/27 08:54:53;;;;;;;9.63;5.55;;;;;;;;;;4449345;32;20224;-54
2021/09/27 08:57:21;;;;;;;9.65;5.70;;;;;;;;;;4446015;32;20262;-53
2021/09/27 08:59:55;;;;;;;10.75;5.90;;;;;;;;;;4447271;32;20274;-54
2021/09/27 09:02:20;;;;;;;12.60;6.00;;;;;;;;;;4447169;32;20266;-54
2021/09/27 09:05:20;;;;;;;9.13;4.97;;;;;;;;;;4449311;32;20397;-53
2021/09/27 09:07:54;;;;;;;11.88;6.22;;;;;;;;;;4446355;32;20307;-54
2021/09/27 09:10:39;;;;;;;11.40;4.90;;;;;;;;;;4438547;32;20240;-54
2021/09/27 09:13:07;;;;;;;6.50;4.30;;;;;;;;;;4447857;32;20217;-55
2021/09/27 09:15:35;;;;;;;10.20;5.45;;;;;;;;;;4449124;32;20403;-53
2021/09/27 09:18:12;;;;;;;10.23;5.07;;;;;;;;;;4449088;32;20224;-54
2021/09/27 09:20:55;;;;;;;10.80;6.18;;;;;;;;;;4444143;32;20637;-53
2021/09/27 09:23:23;;;;;;;13.85;5.78;;;;;;;;;;4444845;32;20220;-53
2021/09/27 09:25:48;;;;;;;23.00;4.95;;;;;;;;;;4446110;32;20321;-53
2021/09/27 09:28:14;;;;;;;8.48;6.05;;;;;;;;;;4438593;32;20322;-55
2021/09/27 09:30:54;;;;;;;22.67;7.47;;;;;;;;;;4440352;32;20245;-53
2021/09/27 09:33:40;;;;;;;14.63;6.25;;;;;;;;;;4431942;32;20212;-54
2021/09/27 09:36:07;;;;;;;6.03;4.82;;;;;;;;;;4431177;32;20237;-55
2021/09/27 09:38:37;;;;;;;13.62;5.37;;;;;;;;;;4430109;32;20240;-53
2021/09/27 09:41:04;;;;;;;7.18;4.03;;;;;;;;;;4431161;32;20241;-53
2021/09/27 09:43:40;;;;;;;10.50;4.85;;;;;;;;;;4432214;32;20243;-55
2021/09/27 09:46:31;;;;;;;7.85;5.57;;;;;;;;;;4434498;32;20232;-54
2021/09/27 09:49:01;;;;;;;9.80;5.85;;;;;;;;;;4449821;32;20215;-54
2021/09/27 09:51:35;;;;;;;10.82;5.40;;;;;;;;;;4448638;32;20240;-53
2021/09/27 09:54:17;;;;;;;9.52;4.97;;;;;;;;;;4448409;32;20462;-54
2021/09/27 09:57:07;;;;;;;8.43;4.80;;;;;;;;;;4448380;32;20767;-53
2021/09/27 09:59:54;;;;;;;6.10;3.78;;;;;;;;;;4437430;32;20354;-53
2021/09/27 10:02:21;;;;;;;8.77;3.75;;;;;;;;;;4447920;32;20260;-53
2021/09/27 10:05:00;;;;;;;6.15;3.92;;;;;;;;;;4430938;32;20400;-53
2021/09/27 10:07:36;;;;;;;7.47;4.95;;;;;;;;;;4442103;32;20252;-54
2021/09/27 10:10:09;;;;;;;10.98;4.93;;;;;;;;;;4442320;32;20809;-54
2021/09/27 10:12:55;;;;;;;7.68;5.15;;;;;;;;;;4438303;32;20221;-54
2021/09/27 10:15:26;;;;;;;9.23;5.35;;;;;;;;;;4442120;32;20625;-53
2021/09/27 10:18:06;;;;;;;9.43;5.03;;;;;;;;;;4439783;32;20793;-53
2021/09/27 10:20:40;;;;;;;13.70;5.25;;;;;;;;;;4445820;32;20251;-53
2021/09/27 10:23:12;;;;;;;15.20;5.87;;;;;;;;;;4436159;32;20319;-53
2021/09/27 10:25:44;;;;;;;39.40;7.07;;;;;;;;;;4447576;32;20288;-53
2021/09/27 10:28:14;;;;;;;11.00;5.53;;;;;;;;;;4446323;32;20244;-54
2021/09/27 10:30:43;;;;;;;5.57;4.57;;;;;;;;;;4443875;32;20301;-53
2021/09/27 10:33:22;;;;;;;7.35;4.05;;;;;;;;;;4436666;32;20237;-53
2021/09/27 10:36:00;;;;;;;35.63;7.15;;;;;;;;;;4446099;32;20227;-54
2021/09/27 10:38:29;;;;;;;7.20;4.72;;;;;;;;;;4438258;32;20393;-52
2021/09/27 10:40:57;;;;;;;10.95;5.62;;;;;;;;;;4436220;32;20216;-53
2021/09/27 10:43:25;;;;;;;11.35;5.45;;;;;;;;;;4448035;32;20284;-55
2021/09/27 10:46:02;;;;;;;8.23;4.93;;;;;;;;;;4440150;32;20255;-54
2021/09/27 10:48:30;;;;;;;17.87;5.45;;;;;;;;;;4434215;32;20949;-54
2021/09/27 10:51:01;;;;;;;10.13;5.30;;;;;;;;;;4434842;32;20212;-55
2021/09/27 10:53:55;;;;;;;11.30;5.53;;;;;;;;;;4447751;32;20236;-54
2021/09/27 10:56:30;;;;;;;8.85;5.47;;;;;;;;;;4421265;32;20837;-54
2021/09/27 10:59:00;;;;;;;7.72;5.30;;;;;;;;;;4432481;32;20228;-54
2021/09/27 11:01:37;;;;;;;8.73;4.82;;;;;;;;;;4436885;32;20254;-54
2021/09/27 11:04:09;;;;;;;9.00;5.05;;;;;;;;;;4447805;32;20378;-54
2021/09/27 11:06:52;;;;;;;39.42;6.95;;;;;;;;;;4448273;32;20267;-54
2021/09/27 11:09:29;;;;;;;8.75;4.93;;;;;;;;;;4447855;32;20196;-55
2021/09/27 11:12:08;;;;;;;11.27;4.80;;;;;;;;;;4447611;32;20227;-55
2021/09/27 11:14:40;;;;;;;9.40;3.85;;;;;;;;;;4447986;32;20228;-55
2021/09/27 11:17:05;;;;;;;22.05;5.65;;;;;;;;;;4447984;32;20267;-56
2021/09/27 11:19:36;;;;;;;12.98;4.15;;;;;;;;;;4447903;32;20303;-54
2021/09/27 11:22:14;;;;;;;6.62;3.65;;;;;;;;;;4447599;32;20449;-55
2021/09/27 11:24:42;;;;;;;7.70;4.12;;;;;;;;;;4447594;32;20529;-55
2021/09/27 11:27:16;;;;;;;9.98;3.97;;;;;;;;;;4446462;32;20297;-55
2021/09/27 11:29:51;;;;;;;15.68;3.78;;;;;;;;;;4445186;32;20282;-55
2021/09/27 11:32:23;;;;;;;4.70;3.53;;;;;;;;;;4445081;32;20330;-54
2021/09/27 11:35:00;;;;;;;7.55;3.50;;;;;;;;;;4445003;32;20311;-57
2021/09/27 11:37:33;;;;;;;9.07;4.55;;;;;;;;;;4445151;32;20208;-55
2021/09/27 11:40:11;;;;;;;7.20;3.50;;;;;;;;;;4446434;32;20208;-55
2021/09/27 11:42:42;;;;;;;5.85;3.00;;;;;;;;;;4448040;32;20279;-53
2021/09/27 11:45:23;;;;;;;7.20;3.67;;;;;;;;;;4446895;32;20228;-53
2021/09/27 11:48:11;;;;;;;5.47;3.08;;;;;;;;;;4447909;32;20352;-54
2021/09/27 11:50:48;;;;;;;9.93;3.00;;;;;;;;;;4430602;32;20646;-54
2021/09/27 11:53:44;;;;;;;7.30;3.08;;;;;;;;;;4431780;32;20509;-54
2021/09/27 11:56:21;;;;;;;6.65;3.50;;;;;;;;;;4445876;32;20752;-54
2021/09/27 11:58:49;;;;;;;11.27;3.80;;;;;;;;;;4448176;32;20780;-54
2021/09/27 12:01:33;;;;;;;8.32;3.72;;;;;;;;;;4446497;32;20650;-54
2021/09/27 12:04:32;;;;;;;13.23;3.00;;;;;;;;;;4434832;32;20212;-54
2021/09/27 12:07:02;;;;;;;7.97;5.18;;;;;;;;;;4436101;32;20279;-55
2021/09/27 12:09:41;;;;;;;8.27;4.18;;;;;;;;;;4435750;32;20223;-55
2021/09/27 12:12:08;;;;;;;6.47;3.40;;;;;;;;;;4435192;32;20232;-56
2021/09/27 12:14:44;;;;;;;5.50;2.92;;;;;;;;;;4435715;32;20200;-56
2021/09/27 12:17:14;;;;;;;5.93;3.08;;;;;;;;;;4435582;32;20327;-53
2021/09/27 12:19:56;;;;;;;4.50;3.03;;;;;;;;;;4435075;32;20293;-55
2021/09/27 12:22:32;;;;;;;5.32;3.25;;;;;;;;;;4433804;32;20224;-55
2021/09/27 12:25:02;;;;;;;5.12;3.28;;;;;;;;;;4435354;32;20340;-56
2021/09/27 12:27:29;;;;;;;8.82;2.85;;;;;;;;;;4435041;32;20325;-54
2021/09/27 12:30:07;;;;;;;8.85;3.12;;;;;;;;;;4434878;32;20264;-54
2021/09/27 12:32:47;;;;;;;10.52;4.20;;;;;;;;;;4438399;32;20223;-55
2021/09/27 12:35:30;;;;;;;6.95;3.33;;;;;;;;;;4450542;32;20224;-54
2021/09/27 12:37:58;;;;;;;3.22;2.03;;;;;;;;;;4450590;32;20285;-54
2021/09/27 12:40:45;;;;;;;7.97;3.25;;;;;;;;;;4450433;32;20327;-55
2021/09/27 12:43:15;;;;;;;4.97;2.75;;;;;;;;;;4450342;32;20240;-55
2021/09/27 12:45:48;;;;;;;15.88;3.92;;;;;;;;;;4449028;32;20259;-55
2021/09/27 12:48:33;;;;;;;9.75;3.33;;;;;;;;;;4450511;32;20312;-54
2021/09/27 12:51:00;;;;;;;5.37;2.33;;;;;;;;;;4450095;32;20252;-55
2021/09/27 12:53:51;;;;;;;9.82;2.80;;;;;;;;;;4450558;32;20659;-55
2021/09/27 12:56:17;;;;;;;7.43;2.72;;;;;;;;;;4465528;32;20262;-55
2021/09/27 12:58:56;;;;;;;5.50;2.78;;;;;;;;;;4465582;32;20706;-56
2021/09/27 13:01:23;;;;;;;6.00;3.03;;;;;;;;;;4461214;32;20243;-54
2021/09/27 13:04:11;;;;;;;4.55;2.83;;;;;;;;;;4450164;32;20651;-54
2021/09/27 13:06:59;;;;;;;7.25;3.22;;;;;;;;;;4448939;32;20691;-54
2021/09/27 13:09:32;;;;;;;12.32;4.07;;;;;;;;;;4449463;32;20281;-55
2021/09/27 13:12:42;;;;;;;10.30;3.90;;;;;;;;;;4449762;32;20304;-55
2021/09/27 13:15:16;;;;;;;6.30;3.25;;;;;;;;;;4437551;32;20805;-55
2021/09/27 13:18:03;;;;;;;6.43;2.78;;;;;;;;;;4450532;32;20270;-54
2021/09/27 13:20:49;;;;;;;4.72;3.05;;;;;;;;;;4449811;32;20221;-54
2021/09/27 13:23:22;;;;;;;12.18;3.90;;;;;;;;;;4449925;32;20205;-55
2021/09/27 13:25:54;;;;;;;8.00;2.85;;;;;;;;;;4450798;32;20252;-55
2021/09/27 13:28:21;;;;;;;6.07;3.05;;;;;;;;;;4448982;32;20295;-54
2021/09/27 13:30:59;;;;;;;6.07;3.62;;;;;;;;;;4448593;32;20256;-55
2021/09/27 13:33:41;;;;;;;6.35;3.35;;;;;;;;;;4440698;32;20271;-55
2021/09/27 13:36:25;;;;;;;5.75;3.40;;;;;;;;;;4434466;32;20251;-55
2021/09/27 13:38:56;;;;;;;5.00;3.58;;;;;;;;;;4436028;32;20239;-54
2021/09/27 13:41:25;;;;;;;5.55;2.85;;;;;;;;;;4449620;32;20312;-54
2021/09/27 13:43:57;;;;;;;10.25;3.92;;;;;;;;;;4448578;32;20256;-55
2021/09/27 13:46:30;;;;;;;11.27;3.58;;;;;;;;;;4449995;32;20308;-54
2021/09/27 13:48:56;;;;;;;7.82;3.08;;;;;;;;;;4449530;32;20214;-54
2021/09/27 13:51:25;;;;;;;10.30;3.72;;;;;;;;;;4449791;32;20295;-53
2021/09/27 13:53:54;;;;;;;10.38;3.40;;;;;;;;;;4449562;32;20201;-53
2021/09/27 13:56:24;;;;;;;14.93;6.45;;;;;;;;;;4434010;32;20257;-54
2021/09/27 13:58:49;;;;;;;11.02;5.80;;;;;;;;;;4445636;32;20262;-54
2021/09/27 14:01:17;;;;;;;17.55;5.90;;;;;;;;;;4447170;32;20236;-54
2021/09/27 14:03:44;;;;;;;7.75;4.65;;;;;;;;;;4449170;32;20291;-55
2021/09/27 14:06:10;;;;;;;11.12;3.92;;;;;;;;;;4448073;32;20265;-55
2021/09/27 14:08:36;;;;;;;8.68;3.92;;;;;;;;;;4448604;32;20576;-55
2021/09/27 14:11:02;;;;;;;8.27;4.25;;;;;;;;;;4448859;32;20323;-56
2021/09/27 14:13:30;;;;;;;10.10;4.43;;;;;;;;;;4449358;32;20729;-55
2021/09/27 14:15:58;;;;;;;8.05;4.22;;;;;;;;;;4449620;32;20274;-54
2021/09/27 14:18:24;;;;;;;5.37;3.53;;;;;;;;;;4449137;32;20254;-55
2021/09/27 14:20:49;;;;;;;8.32;3.78;;;;;;;;;;4447878;32;20743;-54
2021/09/27 14:23:16;;;;;;;10.80;4.57;;;;;;;;;;4447569;32;21771;-57
2021/09/27 14:25:43;;;;;;;17.00;4.18;;;;;;;;;;4447805;32;20744;-55
2021/09/27 14:28:10;;;;;;;8.45;4.53;;;;;;;;;;4448537;32;20282;-56
2021/09/27 14:30:36;;;;;;;8.00;4.62;;;;;;;;;;4447234;32;20261;-55
2021/09/27 14:33:02;;;;;;;24.20;14.93;;;;;;;;;;4448113;32;20236;-55
2021/09/27 14:35:27;;;;;;;9.85;6.45;;;;;;;;;;4447786;32;20275;-55
2021/09/27 14:37:54;;;;;;;6.93;4.43;;;;;;;;;;4446312;32;20294;-54
2021/09/27 14:40:22;;;;;;;13.65;4.90;;;;;;;;;;4448659;32;20273;-55
2021/09/27 14:42:48;;;;;;;9.43;4.12;;;;;;;;;;4447951;32;20205;-54
2021/09/27 14:45:15;;;;;;;16.08;5.22;;;;;;;;;;4448773;32;20718;-54
2021/09/27 14:47:42;;;;;;;4.85;3.65;;;;;;;;;;4447748;32;20747;-54
2021/09/27 14:50:12;;;;;;;11.82;4.90;;;;;;;;;;4436227;32;20259;-54
2021/09/27 14:52:37;;;;;;;11.85;4.20;;;;;;;;;;4431798;32;20197;-54
2021/09/27 14:55:05;;;;;;;5.35;3.58;;;;;;;;;;4442701;32;20604;-54
2021/09/27 14:57:31;;;;;;;8.55;4.18;;;;;;;;;;4439865;32;20244;-54
2021/09/27 14:59:57;;;;;;;9.63;4.40;;;;;;;;;;4439620;32;20306;-56
2021/09/27 15:02:22;;;;;;;9.57;4.60;;;;;;;;;;4445769;32;20347;-54
2021/09/27 15:04:48;;;;;;;9.40;4.53;;;;;;;;;;4447650;32;20279;-54
2021/09/27 15:07:15;;;;;;;9.20;4.68;;;;;;;;;;4440540;32;20271;-54
2021/09/27 15:09:41;;;;;;;12.15;5.28;;;;;;;;;;4447986;32;20256;-54
2021/09/27 15:12:07;;;;;;;9.55;4.78;;;;;;;;;;4447644;32;20306;-54
2021/09/27 15:14:33;;;;;;;6.80;4.62;;;;;;;;;;4447811;32;20607;-56